createdAt,value
2023-10-11T00:01:23.958Z,12.49
2023-10-11T00:04:27.999Z,12.49
2023-10-11T00:07:33.417Z,12.44
2023-10-11T00:10:44.949Z,12.38
2023-10-11T00:13:47.761Z,12.42
2023-10-11T00:16:54.369Z,12.43
2023-10-11T00:19:57.496Z,12.41
2023-10-11T00:23:03.136Z,12.36
2023-10-11T00:26:08.080Z,12.32
2023-10-11T00:29:14.530Z,12.36
2023-10-11T00:32:17.118Z,12.39
2023-10-11T00:35:20.560Z,12.35
2023-10-11T00:38:28.402Z,12.31
2023-10-11T00:41:35.322Z,12.35
2023-10-11T00:44:39.635Z,12.32
2023-10-11T00:47:43.257Z,12.21
2023-10-11T00:50:45.977Z,12.14
2023-10-11T00:53:48.981Z,12.17
2023-10-11T00:56:53.101Z,12.14
2023-10-11T00:59:56.824Z,12.11
2023-10-11T01:03:00.256Z,12.08
2023-10-11T01:06:04.753Z,12.01
2023-10-11T01:09:23.040Z,12.06
2023-10-11T01:12:25.958Z,11.97
2023-10-11T01:15:28.299Z,12.00
2023-10-11T01:18:31.080Z,11.92
2023-10-11T01:21:34.300Z,11.93
2023-10-11T01:24:37.005Z,11.94
2023-10-11T01:27:42.355Z,11.86
2023-10-11T01:30:45.772Z,11.90
2023-10-11T01:33:51.065Z,11.89
2023-10-11T01:36:54.487Z,11.92
2023-10-11T01:39:58.389Z,11.91
2023-10-11T01:43:05.159Z,11.90
2023-10-11T01:46:08.414Z,11.85
2023-10-11T01:49:14.717Z,11.86
2023-10-11T01:52:17.241Z,11.83
2023-10-11T01:55:20.082Z,11.82
2023-10-11T01:58:22.493Z,11.84
2023-10-11T02:01:28.331Z,11.84
2023-10-11T02:04:31.577Z,11.81
2023-10-11T02:07:33.964Z,11.75
2023-10-11T02:10:37.707Z,11.71
2023-10-11T02:13:40.939Z,11.68
2023-10-11T02:16:43.918Z,11.70
2023-10-11T02:19:46.683Z,11.68
2023-10-11T02:22:57.253Z,11.70
2023-10-11T02:25:59.932Z,11.73
2023-10-11T02:29:16.579Z,11.76
2023-10-11T02:32:19.446Z,11.78
2023-10-11T02:35:27.949Z,11.84
2023-10-11T02:38:30.713Z,11.85
2023-10-11T02:41:38.315Z,11.83
2023-10-11T02:44:42.460Z,11.78
2023-10-11T02:47:45.130Z,11.86
2023-10-11T02:50:50.288Z,11.79
2023-10-11T02:53:55.521Z,11.87
2023-10-11T02:56:58.713Z,11.84
2023-10-11T03:00:01.219Z,11.81
2023-10-11T03:03:09.754Z,11.90
2023-10-11T03:06:12.861Z,11.86
2023-10-11T03:09:19.820Z,11.84
2023-10-11T03:12:34.131Z,11.73
2023-10-11T03:15:39.998Z,11.66
2023-10-11T03:18:43.121Z,11.62
2023-10-11T03:21:45.832Z,11.56
2023-10-11T03:25:00.981Z,11.65
2023-10-11T03:28:04.596Z,11.60
2023-10-11T03:31:07.174Z,11.39
2023-10-11T03:34:12.852Z,11.55
2023-10-11T03:37:19.406Z,11.56
2023-10-11T03:40:35.321Z,11.62
2023-10-11T03:43:42.363Z,11.66
2023-10-11T03:46:48.750Z,11.68
2023-10-11T03:49:54.678Z,11.70
2023-10-11T03:53:07.812Z,11.64
2023-10-11T03:56:10.292Z,11.71
2023-10-11T03:59:16.885Z,11.70
2023-10-11T04:02:20.607Z,11.71
2023-10-11T04:05:23.909Z,11.61
2023-10-11T04:08:28.047Z,11.61
2023-10-11T04:11:39.725Z,11.58
2023-10-11T04:14:46.735Z,11.57
2023-10-11T04:17:50.706Z,11.52
2023-10-11T04:21:00.893Z,11.45
2023-10-11T04:27:21.758Z,11.41
2023-10-11T04:30:27.927Z,11.46
2023-10-11T04:33:31.269Z,11.40
2023-10-11T04:36:33.909Z,11.36
2023-10-11T04:39:44.519Z,11.48
2023-10-11T04:43:03.032Z,11.50
2023-10-11T04:46:08.644Z,11.63
2023-10-11T04:49:24.394Z,11.72
2023-10-11T04:52:37.965Z,11.71
2023-10-11T04:55:43.069Z,11.74
2023-10-11T04:58:51.681Z,11.74
2023-10-11T05:01:54.730Z,11.76
2023-10-11T05:04:58.058Z,11.71
2023-10-11T05:08:15.513Z,11.83
2023-10-11T05:11:42.181Z,11.82
2023-10-11T05:14:44.955Z,11.86
2023-10-11T05:18:00.277Z,11.79
2023-10-11T05:21:08.194Z,11.80
2023-10-11T05:24:30.305Z,11.85
2023-10-11T05:27:34.720Z,11.96
2023-10-11T05:30:37.160Z,11.99
2023-10-11T05:33:46.463Z,11.93
2023-10-11T05:37:08.067Z,11.95
2023-10-11T05:40:29.971Z,12.04
2023-10-11T05:43:51.044Z,12.13
2023-10-11T05:47:12.385Z,12.22
2023-10-11T05:50:33.354Z,12.20
2023-10-11T05:53:36.540Z,12.20
2023-10-11T05:56:47.442Z,12.31
2023-10-11T05:59:50.562Z,12.35
2023-10-11T06:02:54.066Z,12.50
2023-10-11T06:05:56.934Z,12.40
2023-10-11T06:09:00.696Z,12.53
2023-10-11T06:12:05.694Z,12.45
2023-10-11T06:15:18.014Z,12.46
2023-10-11T06:18:39.418Z,12.47
2023-10-11T06:21:57.255Z,12.56
2023-10-11T06:25:00.275Z,12.54
2023-10-11T06:28:02.799Z,12.66
2023-10-11T06:31:07.987Z,12.68
2023-10-11T06:34:25.363Z,12.69
2023-10-11T06:37:28.168Z,12.67
2023-10-11T06:40:50.081Z,12.68
2023-10-11T06:43:52.949Z,12.75
2023-10-11T06:46:57.459Z,12.84
2023-10-11T06:50:00.508Z,12.87
2023-10-11T06:53:08.369Z,12.88
2023-10-11T06:56:18.371Z,12.90
2023-10-11T06:59:20.933Z,12.99
2023-10-11T07:02:33.215Z,12.90
2023-10-11T07:05:43.279Z,13.04
2023-10-11T07:08:53.222Z,13.12
2023-10-11T07:12:15.587Z,13.20
2023-10-11T07:15:21.965Z,13.32
2023-10-11T07:18:28.892Z,13.52
2023-10-11T07:21:53.404Z,13.73
2023-10-11T07:25:19.634Z,13.62
2023-10-11T07:28:37.672Z,13.75
2023-10-11T07:31:50.015Z,13.83
2023-10-11T07:34:56.178Z,13.75
2023-10-11T07:38:01.428Z,13.86
2023-10-11T07:41:18.530Z,13.76
2023-10-11T07:44:21.194Z,13.86
2023-10-11T07:47:27.234Z,13.88
2023-10-11T07:50:30.077Z,13.89
2023-10-11T07:53:34.055Z,13.92
2023-10-11T07:56:39.247Z,14.00
2023-10-11T07:59:48.004Z,13.88
2023-10-11T08:03:16.720Z,13.98
2023-10-11T08:06:25.336Z,13.86
2023-10-11T08:09:29.755Z,14.18
2023-10-11T08:12:32.535Z,14.07
2023-10-11T08:15:39.991Z,14.30
2023-10-11T08:18:42.880Z,14.19
2023-10-11T08:21:55.746Z,14.36
2023-10-11T08:24:59.626Z,14.41
2023-10-11T08:28:14.967Z,14.60
2023-10-11T08:31:50.532Z,14.66
2023-10-11T08:34:55.644Z,14.84
2023-10-11T08:38:04.726Z,15.02
2023-10-11T08:41:10.185Z,14.82
2023-10-11T08:44:22.893Z,14.90
2023-10-11T08:47:25.390Z,14.93
2023-10-11T08:50:36.001Z,14.92
2023-10-11T08:53:48.820Z,15.10
2023-10-11T08:56:59.108Z,15.33
2023-10-11T09:00:04.411Z,15.55
2023-10-11T09:03:20.992Z,15.78
2023-10-11T09:06:27.444Z,15.62
2023-10-11T09:09:36.815Z,16.02
2023-10-11T09:12:47.511Z,16.33
2023-10-11T09:15:58.443Z,16.30
2023-10-11T09:19:06.872Z,16.29
2023-10-11T09:22:19.576Z,16.47
2023-10-11T09:25:34.635Z,16.28
2023-10-11T09:28:42.641Z,16.41
2023-10-11T09:32:11.004Z,16.31
2023-10-11T09:35:25.181Z,16.50
2023-10-11T09:38:28.147Z,16.35
2023-10-11T09:41:40.051Z,16.50
2023-10-11T09:44:46.878Z,16.74
2023-10-11T09:47:56.360Z,16.95
2023-10-11T09:51:00.456Z,17.02
2023-10-11T09:54:08.273Z,17.14
2023-10-11T09:57:17.277Z,17.20
2023-10-11T10:00:36.782Z,17.07
2023-10-11T10:03:54.008Z,17.39
2023-10-11T10:07:33.647Z,17.34
2023-10-11T10:10:53.474Z,17.46
2023-10-11T10:14:24.302Z,17.58
2023-10-11T10:17:28.027Z,17.67
2023-10-11T10:20:42.575Z,17.68
2023-10-11T10:23:45.335Z,17.93
2023-10-11T10:26:48.204Z,18.04
2023-10-11T10:30:01.436Z,18.36
2023-10-11T10:33:20.205Z,18.34
2023-10-11T10:36:23.417Z,18.58
2023-10-11T10:39:37.386Z,18.61
2023-10-11T10:42:40.211Z,18.68
2023-10-11T10:45:42.745Z,18.92
2023-10-11T10:48:54.156Z,18.92
2023-10-11T10:51:58.497Z,19.11
2023-10-11T10:55:06.798Z,19.25
2023-10-11T10:58:17.115Z,19.41
2023-10-11T11:01:28.246Z,19.59
2023-10-11T11:04:33.857Z,19.69
2023-10-11T11:07:39.943Z,19.90
2023-10-11T11:10:55.727Z,19.85
2023-10-11T11:13:59.321Z,19.91
2023-10-11T11:17:13.082Z,20.02
2023-10-11T11:20:28.821Z,20.11
2023-10-11T11:23:34.757Z,20.00
2023-10-11T11:26:39.304Z,20.46
2023-10-11T11:29:41.755Z,20.39
2023-10-11T11:32:47.086Z,20.41
2023-10-11T11:35:53.131Z,20.41
2023-10-11T11:38:55.975Z,20.35
2023-10-11T11:41:58.758Z,20.55
2023-10-11T11:45:01.832Z,20.88
2023-10-11T11:48:06.560Z,21.08
2023-10-11T11:51:15.312Z,21.08
2023-10-11T11:54:29.708Z,21.16
2023-10-11T11:57:32.721Z,21.36
2023-10-11T12:00:43.670Z,21.35
2023-10-11T12:03:55.547Z,21.21
2023-10-11T12:06:59.440Z,21.61
2023-10-11T12:10:04.212Z,21.72
2023-10-11T12:13:06.948Z,21.71
2023-10-11T12:16:10.578Z,21.72
2023-10-11T12:19:15.664Z,21.85
2023-10-11T12:22:23.566Z,21.99
2023-10-11T12:25:26.535Z,21.97
2023-10-11T12:28:29.292Z,22.02
2023-10-11T12:31:31.992Z,22.09
2023-10-11T12:34:35.546Z,22.08
2023-10-11T12:37:38.223Z,21.98
2023-10-11T12:40:42.197Z,22.32
2023-10-11T12:43:46.960Z,22.36
2023-10-11T12:46:52.067Z,22.56
2023-10-11T12:49:54.665Z,22.50
2023-10-11T12:52:58.330Z,22.65
2023-10-11T12:56:00.875Z,22.69
2023-10-11T12:59:04.038Z,22.67
2023-10-11T13:02:07.613Z,22.66
2023-10-11T13:05:10.777Z,22.73
2023-10-11T13:08:17.006Z,22.72
2023-10-11T13:11:22.638Z,22.73
2023-10-11T13:14:26.103Z,22.94
2023-10-11T13:17:29.347Z,22.94
2023-10-11T13:20:33.063Z,22.79
2023-10-11T13:23:36.063Z,22.74
2023-10-11T13:26:43.887Z,22.96
2023-10-11T13:29:48.317Z,22.99
2023-10-11T13:32:58.929Z,22.97
2023-10-11T13:36:03.597Z,22.93
2023-10-11T13:39:11.248Z,22.91
2023-10-11T13:42:16.574Z,22.93
2023-10-11T13:45:19.349Z,22.98
2023-10-11T13:48:25.161Z,22.90
2023-10-11T13:51:30.770Z,22.84
2023-10-11T13:54:44.042Z,22.84
2023-10-11T13:57:53.715Z,22.84
2023-10-11T14:00:56.605Z,22.74
2023-10-11T14:04:09.131Z,22.66
2023-10-11T14:07:21.049Z,22.65
2023-10-11T14:10:28.512Z,22.65
2023-10-11T14:13:32.577Z,22.63
2023-10-11T14:16:35.313Z,22.70
2023-10-11T14:19:38.569Z,22.65
2023-10-11T14:22:44.409Z,22.76
2023-10-11T14:25:47.052Z,22.74
2023-10-11T14:28:49.804Z,22.73
2023-10-11T14:31:52.606Z,22.74
2023-10-11T14:34:55.434Z,22.75
2023-10-11T14:37:57.852Z,22.68
2023-10-11T14:41:09.001Z,22.65
2023-10-11T14:44:11.537Z,22.57
2023-10-11T14:47:15.266Z,22.57
2023-10-11T14:50:24.429Z,22.52
2023-10-11T14:53:27.344Z,22.48
2023-10-11T14:56:30.226Z,22.39
2023-10-11T14:59:36.252Z,22.31
2023-10-11T15:02:38.746Z,22.23
2023-10-11T15:05:41.620Z,22.10
2023-10-11T15:08:44.842Z,22.05
2023-10-11T15:11:49.078Z,21.96
2023-10-11T15:14:51.691Z,21.90
2023-10-11T15:17:55.340Z,21.89
2023-10-11T15:20:57.853Z,21.80
2023-10-11T15:24:00.644Z,21.70
2023-10-11T15:27:03.028Z,21.67
2023-10-11T15:30:09.065Z,21.66
2023-10-11T15:33:14.052Z,21.58
2023-10-11T15:36:18.500Z,21.45
2023-10-11T15:39:21.151Z,21.43
2023-10-11T15:42:24.393Z,21.31
2023-10-11T15:45:27.001Z,21.18
2023-10-11T15:48:31.097Z,21.11
2023-10-11T15:51:34.341Z,21.11
2023-10-11T15:54:39.842Z,20.98
2023-10-11T15:57:43.489Z,20.93
2023-10-11T16:00:46.763Z,20.82
2023-10-11T16:03:53.763Z,20.81
2023-10-11T16:06:59.157Z,20.74
2023-10-11T16:10:03.286Z,20.71
2023-10-11T16:13:05.721Z,20.68
2023-10-11T16:16:08.824Z,20.68
2023-10-11T16:19:12.984Z,20.54
2023-10-11T16:22:15.789Z,20.47
2023-10-11T16:25:20.229Z,20.56
2023-10-11T16:28:27.237Z,20.41
2023-10-11T16:31:32.073Z,20.33
2023-10-11T16:34:34.864Z,20.30
2023-10-11T16:37:38.862Z,20.30
2023-10-11T16:40:41.612Z,20.26
2023-10-11T16:43:44.185Z,20.17
2023-10-11T16:46:47.402Z,20.11
2023-10-11T16:49:50.358Z,19.98
2023-10-11T16:52:53.143Z,19.97
2023-10-11T16:55:55.631Z,19.87
2023-10-11T16:58:59.359Z,19.97
2023-10-11T17:02:01.981Z,19.95
2023-10-11T17:05:07.504Z,19.96
2023-10-11T17:08:13.961Z,19.90
2023-10-11T17:11:16.771Z,19.89
2023-10-11T17:14:19.886Z,19.78
2023-10-11T17:17:23.012Z,19.73
2023-10-11T17:20:26.058Z,19.75
2023-10-11T17:23:28.765Z,19.63
2023-10-11T17:26:33.596Z,19.58
2023-10-11T17:29:37.313Z,19.56
2023-10-11T17:32:42.429Z,19.57
2023-10-11T17:35:46.822Z,19.43
2023-10-11T17:38:49.356Z,19.39
2023-10-11T17:41:52.328Z,19.35
2023-10-11T17:44:55.216Z,19.31
2023-10-11T17:47:58.417Z,19.27
2023-10-11T17:51:01.360Z,19.23
2023-10-11T17:54:04.562Z,19.21
2023-10-11T17:57:07.354Z,19.20
2023-10-11T18:00:12.123Z,19.13
2023-10-11T18:03:14.987Z,19.03
2023-10-11T18:06:18.751Z,19.05
2023-10-11T18:09:21.751Z,18.96
2023-10-11T18:12:24.251Z,19.05
2023-10-11T18:15:36.755Z,19.00
2023-10-11T18:18:40.497Z,18.97
2023-10-11T18:21:45.005Z,18.87
2023-10-11T18:24:47.486Z,18.87
2023-10-11T18:27:58.328Z,18.90
2023-10-11T18:31:08.336Z,18.81
2023-10-11T18:34:11.653Z,18.78
2023-10-11T18:37:14.345Z,18.68
2023-10-11T18:40:31.340Z,18.63
2023-10-11T18:43:33.879Z,18.58
2023-10-11T18:46:37.074Z,18.58
2023-10-11T18:49:39.463Z,18.54
2023-10-11T18:52:43.377Z,18.44
2023-10-11T18:55:46.772Z,18.35
2023-10-11T18:58:49.507Z,18.32
2023-10-11T19:01:51.948Z,18.31
2023-10-11T19:04:58.302Z,18.24
2023-10-11T19:08:00.867Z,18.21
2023-10-11T19:11:12.669Z,18.09
2023-10-11T19:14:18.343Z,18.11
2023-10-11T19:17:21.252Z,18.16
2023-10-11T19:20:28.888Z,18.09
2023-10-11T19:23:35.597Z,18.10
2023-10-11T19:26:41.024Z,18.07
2023-10-11T19:29:44.012Z,18.11
2023-10-11T19:32:46.598Z,18.11
2023-10-11T19:35:49.520Z,18.05
2023-10-11T19:38:52.266Z,17.99
2023-10-11T19:41:54.954Z,17.90
2023-10-11T19:44:57.634Z,17.90
2023-10-11T19:48:01.072Z,17.77
2023-10-11T19:51:04.104Z,17.76
2023-10-11T19:54:07.419Z,17.66
2023-10-11T19:57:09.909Z,17.66
2023-10-11T20:00:13.898Z,17.58
2023-10-11T20:03:16.785Z,17.60
2023-10-11T20:06:19.430Z,17.58
2023-10-11T20:09:24.523Z,17.51
2023-10-11T20:12:27.069Z,17.53
2023-10-11T20:15:30.838Z,17.46
2023-10-11T20:18:33.314Z,17.45
2023-10-11T20:21:37.299Z,17.51
2023-10-11T20:24:40.283Z,17.41
2023-10-11T20:27:49.918Z,17.43
2023-10-11T20:30:52.614Z,17.38
2023-10-11T20:33:58.578Z,17.33
2023-10-11T20:37:01.370Z,17.29
2023-10-11T20:40:23.078Z,17.21
2023-10-11T20:43:25.747Z,17.24
2023-10-11T20:46:28.542Z,17.22
2023-10-11T20:49:31.044Z,17.12
2023-10-11T20:52:34.977Z,17.14
2023-10-11T20:55:40.312Z,17.06
2023-10-11T20:58:56.630Z,17.08
2023-10-11T21:01:59.366Z,17.03
2023-10-11T21:05:02.106Z,17.00
2023-10-11T21:08:05.272Z,16.98
2023-10-11T21:11:07.954Z,16.93
2023-10-11T21:14:10.308Z,16.88
2023-10-11T21:17:13.021Z,16.85
2023-10-11T21:20:18.843Z,16.75
2023-10-11T21:23:22.881Z,16.71
2023-10-11T21:26:25.491Z,16.72
2023-10-11T21:29:28.373Z,16.69
2023-10-11T21:32:30.810Z,16.61
2023-10-11T21:35:35.781Z,16.62
2023-10-11T21:38:38.204Z,16.59
2023-10-11T21:41:43.215Z,16.58
2023-10-11T21:44:47.418Z,16.55
2023-10-11T21:47:50.308Z,16.49
2023-10-11T21:50:53.444Z,16.46
2023-10-11T21:53:56.388Z,16.42
2023-10-11T21:56:58.745Z,16.39
2023-10-11T22:00:01.871Z,16.35
2023-10-11T22:03:04.673Z,16.35
2023-10-11T22:06:07.546Z,16.33
2023-10-11T22:09:10.018Z,16.29
2023-10-11T22:12:15.207Z,16.26
2023-10-11T22:15:23.816Z,16.16
2023-10-11T22:18:30.456Z,16.20
2023-10-11T22:21:40.822Z,16.16
2023-10-11T22:24:45.922Z,16.14
2023-10-11T22:27:49.287Z,16.11
2023-10-11T22:30:52.075Z,16.03
2023-10-11T22:33:56.016Z,16.05
2023-10-11T22:37:01.205Z,15.99
2023-10-11T22:40:04.653Z,16.02
2023-10-11T22:43:25.680Z,15.99
2023-10-11T22:46:30.130Z,15.94
2023-10-11T22:49:33.173Z,15.91
2023-10-11T22:52:35.857Z,15.81
2023-10-11T22:55:42.338Z,15.86
2023-10-11T22:58:45.243Z,15.83
2023-10-11T23:01:48.937Z,15.77
2023-10-11T23:04:55.255Z,15.71
2023-10-11T23:07:58.834Z,15.67
2023-10-11T23:11:13.552Z,15.70
2023-10-11T23:14:16.299Z,15.67
2023-10-11T23:17:18.722Z,15.66
2023-10-11T23:20:21.508Z,15.62
2023-10-11T23:23:49.007Z,15.62
2023-10-11T23:26:54.353Z,15.53
2023-10-11T23:30:00.132Z,15.58
2023-10-11T23:33:16.576Z,15.56
2023-10-11T23:36:25.958Z,15.52
2023-10-11T23:39:36.087Z,15.51
2023-10-11T23:42:40.510Z,15.41
2023-10-11T23:45:54.626Z,15.41
2023-10-11T23:49:07.298Z,15.44
2023-10-11T23:52:14.734Z,15.43
2023-10-11T23:55:24.977Z,15.39
2023-10-11T23:58:31.463Z,15.35
